Hat Yai, Thailand
Current Conditions -  °F | °C
As of 7:30 AM on Sunday 21 Dec 2014 (Local Time) from VTSS Reporting Station
Broken Clouds Broken Clouds  
Wind Chill: 77°   Ceiling: 12000
Heat Index: 78°   Visibility: 6mi
Dew Point: 75°   Wind: 5mph
Humidity: 94%   Direction: 320°NW
Pressure: 29.8"   Gusts: NA
Location:  7°N, 100.47°E
Report Text: VTSS 210030Z 32004KT 9000 FEW016CB SCT018 BKN120 25/24 Q1009 A2981 NOSIG
Loading
Personal Weather Stations






























Interactive Weather Map New forecast layout! Learn more

10-Day Weather Forecast

Advertisements
Track Severe Weather on mobile